createdAt,value
2022-10-17T00:01:31.866Z,25.52
2022-10-17T00:04:00.278Z,72.50
2022-10-17T00:06:38.489Z,33.10
2022-10-17T00:09:06.948Z,88.13
2022-10-17T00:11:35.291Z,123.43
2022-10-17T00:14:03.650Z,104.68
2022-10-17T00:16:41.798Z,67.05
2022-10-17T00:19:20.229Z,130.65
2022-10-17T00:21:49.617Z,168.45
2022-10-17T00:24:18.060Z,177.30
2022-10-17T00:26:51.211Z,175.48
2022-10-17T00:29:19.485Z,174.63
2022-10-17T00:31:58.772Z,146.52
2022-10-17T00:34:29.415Z,160.65
2022-10-17T00:37:03.181Z,126.20
2022-10-17T00:39:31.520Z,136.57
2022-10-17T00:41:59.903Z,103.80
2022-10-17T00:44:31.367Z,111.07
2022-10-17T00:47:06.785Z,81.28
2022-10-17T00:49:37.440Z,73.13
2022-10-17T00:52:08.870Z,71.97
2022-10-17T00:54:41.465Z,78.97
2022-10-17T00:57:10.455Z,75.45
2022-10-17T00:59:46.391Z,75.70
2022-10-17T01:02:25.375Z,73.45
2022-10-17T01:04:59.710Z,72.40
2022-10-17T01:07:33.150Z,76.28
2022-10-17T01:12:49.864Z,99.40
2022-10-17T01:15:28.077Z,94.13
2022-10-17T01:18:12.739Z,106.32
2022-10-17T01:20:59.953Z,118.43
2022-10-17T01:23:39.200Z,116.03
2022-10-17T01:26:19.773Z,122.38
2022-10-17T01:29:02.902Z,130.87
2022-10-17T01:31:52.970Z,153.55
2022-10-17T01:34:32.772Z,155.77
2022-10-17T01:37:10.387Z,155.73
2022-10-17T01:39:47.806Z,151.95
2022-10-17T01:42:19.959Z,160.55
2022-10-17T01:45:00.546Z,155.48
2022-10-17T01:47:31.206Z,137.52
2022-10-17T01:50:08.601Z,134.20
2022-10-17T01:52:45.980Z,130.75
2022-10-17T01:55:19.398Z,119.28
2022-10-17T01:57:52.278Z,121.22
2022-10-17T02:00:23.514Z,125.10
2022-10-17T02:02:57.497Z,107.90
2022-10-17T02:05:28.687Z,110.88
2022-10-17T02:07:56.982Z,104.68
2022-10-17T02:10:32.777Z,99.40
2022-10-17T02:13:11.820Z,89.78
2022-10-17T02:16:03.895Z,99.43
2022-10-17T02:18:32.837Z,88.68
2022-10-17T02:21:07.698Z,77.20
2022-10-17T02:23:42.883Z,77.57
2022-10-17T02:26:17.187Z,62.53
2022-10-17T02:28:52.456Z,64.80
2022-10-17T02:31:23.178Z,59.90
2022-10-17T02:34:00.337Z,53.35
2022-10-17T02:36:35.149Z,53.40
2022-10-17T02:39:04.743Z,51.15
2022-10-17T02:41:33.670Z,47.67
2022-10-17T02:44:03.222Z,49.78
2022-10-17T02:46:41.420Z,47.53
2022-10-17T02:49:17.079Z,44.45
2022-10-17T02:51:56.715Z,44.03
2022-10-17T02:54:43.830Z,39.97
2022-10-17T02:57:22.069Z,38.25
2022-10-17T02:59:50.767Z,35.75
2022-10-17T03:02:19.376Z,43.38
2022-10-17T03:04:47.695Z,41.05
2022-10-17T03:07:17.482Z,46.78
2022-10-17T03:09:45.841Z,43.73
2022-10-17T03:12:14.204Z,41.53
2022-10-17T03:14:42.559Z,46.97
2022-10-17T03:17:10.986Z,45.95
2022-10-17T03:19:43.887Z,43.38
2022-10-17T03:22:12.487Z,53.63
2022-10-17T03:24:42.869Z,56.50
2022-10-17T03:27:11.883Z,56.75
2022-10-17T03:29:40.649Z,56.72
2022-10-17T03:32:11.176Z,60.10
2022-10-17T03:34:39.677Z,55.03
2022-10-17T03:37:08.694Z,48.92
2022-10-17T03:39:39.058Z,53.00
2022-10-17T03:42:08.010Z,51.35
2022-10-17T03:44:40.286Z,50.30
2022-10-17T03:47:11.837Z,47.35
2022-10-17T03:49:42.750Z,53.03
2022-10-17T03:52:13.186Z,52.22
2022-10-17T03:54:41.878Z,54.17
2022-10-17T03:57:10.838Z,54.35
2022-10-17T03:59:39.806Z,66.90
2022-10-17T04:02:15.533Z,62.05
2022-10-17T04:04:45.337Z,63.78
2022-10-17T04:07:13.850Z,64.40
2022-10-17T04:09:45.399Z,54.92
2022-10-17T04:12:23.761Z,68.45
2022-10-17T04:14:52.274Z,64.53
2022-10-17T04:17:22.585Z,61.33
2022-10-17T04:19:51.067Z,72.88
2022-10-17T04:22:20.562Z,71.80
2022-10-17T04:24:49.026Z,64.95
2022-10-17T04:30:10.303Z,63.03
2022-10-17T04:32:41.844Z,65.57
2022-10-17T04:35:22.911Z,71.25
2022-10-17T04:38:01.896Z,59.90
2022-10-17T04:40:30.455Z,46.34
2022-10-17T04:43:00.677Z,50.17
2022-10-17T04:45:41.405Z,46.13
2022-10-17T04:48:09.787Z,39.85
2022-10-17T04:50:38.438Z,41.42
2022-10-17T04:53:36.123Z,41.33
2022-10-17T04:56:10.644Z,40.83
2022-10-17T04:58:39.629Z,36.95
2022-10-17T05:01:19.697Z,42.13
2022-10-17T05:03:53.440Z,46.35
2022-10-17T05:06:24.747Z,42.85
2022-10-17T05:09:15.670Z,44.42
2022-10-17T05:11:44.836Z,47.08
2022-10-17T05:14:13.717Z,41.75
2022-10-17T05:16:43.391Z,40.90
2022-10-17T05:19:12.364Z,43.45
2022-10-17T05:21:47.537Z,43.42
2022-10-17T05:24:17.895Z,46.63
2022-10-17T05:26:50.594Z,49.42
2022-10-17T05:29:24.886Z,48.47
2022-10-17T05:32:03.356Z,49.47
2022-10-17T05:34:33.970Z,58.90
2022-10-17T05:37:02.420Z,48.10
2022-10-17T05:39:31.184Z,46.80
2022-10-17T05:42:01.375Z,40.72
2022-10-17T05:44:30.162Z,46.88
2022-10-17T05:47:01.471Z,51.03
2022-10-17T05:49:44.009Z,45.60
2022-10-17T05:52:18.441Z,36.70
2022-10-17T05:55:09.598Z,35.47
2022-10-17T05:57:39.814Z,32.50
2022-10-17T06:00:13.592Z,29.10
2022-10-17T06:02:51.568Z,31.88
2022-10-17T06:05:21.166Z,31.55
2022-10-17T06:07:50.570Z,29.77
2022-10-17T06:10:19.585Z,27.77
2022-10-17T06:12:47.996Z,29.63
2022-10-17T06:15:16.981Z,28.00
2022-10-17T06:17:49.902Z,27.88
2022-10-17T06:20:18.360Z,25.58
2022-10-17T06:22:46.699Z,25.98
2022-10-17T06:25:22.757Z,27.98
2022-10-17T06:28:01.228Z,24.23
2022-10-17T06:30:34.715Z,20.10
2022-10-17T06:33:03.857Z,22.85
2022-10-17T06:35:32.605Z,24.48
2022-10-17T06:38:01.634Z,22.20
2022-10-17T06:40:30.688Z,19.25
2022-10-17T06:42:59.092Z,18.67
2022-10-17T06:45:40.780Z,16.33
2022-10-17T06:48:23.916Z,18.23
2022-10-17T06:51:11.755Z,16.75
2022-10-17T06:53:50.166Z,19.40
2022-10-17T06:56:47.837Z,17.63
2022-10-17T06:59:36.388Z,17.55
2022-10-17T07:02:14.188Z,16.58
2022-10-17T07:04:43.613Z,15.18
2022-10-17T07:07:20.108Z,17.83
2022-10-17T07:09:50.078Z,14.13
2022-10-17T07:12:19.249Z,17.65
2022-10-17T07:14:47.794Z,14.50
2022-10-17T07:17:24.104Z,17.05
2022-10-17T07:19:52.704Z,15.45
2022-10-17T07:22:21.164Z,16.52
2022-10-17T07:24:51.816Z,16.90
2022-10-17T07:27:27.544Z,13.75
2022-10-17T07:29:57.769Z,16.80
2022-10-17T07:32:49.699Z,14.25
2022-10-17T07:35:18.134Z,14.70
2022-10-17T07:37:46.888Z,14.45
2022-10-17T07:40:19.858Z,14.88
2022-10-17T07:42:48.940Z,13.20
2022-10-17T07:45:17.795Z,14.13
2022-10-17T07:47:46.405Z,13.20
2022-10-17T07:50:17.889Z,12.80
2022-10-17T07:52:46.276Z,10.45
2022-10-17T07:55:14.595Z,11.75
2022-10-17T07:57:42.901Z,13.82
2022-10-17T08:00:11.471Z,12.48
2022-10-17T08:02:43.088Z,13.82
2022-10-17T08:05:12.065Z,9.73
2022-10-17T08:07:42.260Z,9.98
2022-10-17T08:10:12.591Z,9.70
2022-10-17T08:12:41.128Z,13.95
2022-10-17T08:15:19.400Z,9.23
2022-10-17T08:17:47.729Z,10.70
2022-10-17T08:20:16.113Z,8.27
2022-10-17T08:22:51.748Z,7.40
2022-10-17T08:25:20.175Z,6.90
2022-10-17T08:27:58.845Z,8.77
2022-10-17T08:30:27.259Z,5.20
2022-10-17T08:33:06.019Z,8.00
2022-10-17T08:35:44.296Z,3.80
2022-10-17T08:38:13.535Z,3.72
2022-10-17T08:40:43.281Z,4.65
2022-10-17T08:43:20.810Z,3.45
2022-10-17T08:45:49.133Z,3.15
2022-10-17T08:48:24.010Z,4.18
2022-10-17T08:50:52.350Z,3.50
2022-10-17T08:53:20.599Z,5.65
2022-10-17T08:55:50.219Z,5.07
2022-10-17T08:58:21.590Z,3.33
2022-10-17T09:00:53.920Z,4.78
2022-10-17T09:03:34.320Z,4.43
2022-10-17T09:06:17.946Z,6.05
2022-10-17T09:09:07.974Z,5.25
2022-10-17T09:11:48.273Z,5.85
2022-10-17T09:14:31.173Z,5.60
2022-10-17T09:17:02.876Z,5.85
2022-10-17T09:19:38.244Z,6.57
2022-10-17T09:22:20.050Z,6.00
2022-10-17T09:24:48.747Z,6.95
2022-10-17T09:27:22.307Z,7.05
2022-10-17T09:30:02.886Z,7.05
2022-10-17T09:32:32.868Z,6.28
2022-10-17T09:35:01.438Z,5.22
2022-10-17T09:37:31.573Z,4.85
2022-10-17T09:39:59.872Z,5.13
2022-10-17T09:42:28.901Z,4.80
2022-10-17T09:48:29.230Z,7.28
2022-10-17T09:51:14.812Z,8.10
2022-10-17T09:53:50.593Z,7.43
2022-10-17T09:56:19.747Z,7.15
2022-10-17T09:58:55.297Z,6.85
2022-10-17T10:01:31.524Z,6.88
2022-10-17T10:04:09.827Z,6.50
2022-10-17T10:06:38.431Z,5.90
2022-10-17T10:09:07.762Z,3.33
2022-10-17T10:11:50.311Z,3.10
2022-10-17T10:14:35.223Z,4.05
2022-10-17T10:17:28.020Z,2.15
2022-10-17T10:20:01.896Z,2.67
2022-10-17T10:22:31.709Z,2.25
2022-10-17T10:25:16.982Z,2.58
2022-10-17T10:27:50.261Z,2.72
2022-10-17T10:30:19.768Z,2.65
2022-10-17T10:35:37.498Z,2.67
2022-10-17T10:38:11.345Z,2.80
2022-10-17T10:40:50.722Z,3.45
2022-10-17T10:43:24.671Z,4.18
2022-10-17T10:45:53.879Z,2.95
2022-10-17T10:48:37.649Z,4.45
2022-10-17T10:51:17.477Z,5.07
2022-10-17T10:54:02.184Z,4.20
2022-10-17T10:56:42.134Z,5.90
2022-10-17T10:59:30.687Z,6.68
2022-10-17T11:05:13.117Z,7.63
2022-10-17T11:07:53.309Z,7.43
2022-10-17T11:10:24.697Z,5.93
2022-10-17T11:13:11.803Z,5.20
2022-10-17T11:18:21.514Z,4.60
2022-10-17T11:21:13.912Z,4.15
2022-10-17T11:23:48.099Z,2.05
2022-10-17T11:26:29.187Z,2.40
2022-10-17T11:29:04.570Z,2.70
2022-10-17T11:31:36.183Z,3.10
2022-10-17T11:34:10.867Z,2.70
2022-10-17T11:36:42.156Z,2.50
2022-10-17T11:39:22.576Z,2.70
2022-10-17T11:41:59.828Z,3.80
2022-10-17T11:44:38.340Z,2.90
2022-10-17T11:47:20.023Z,2.43
2022-10-17T11:49:54.051Z,2.50
2022-10-17T11:52:55.492Z,3.53
2022-10-17T11:55:26.719Z,6.47
2022-10-17T11:58:18.917Z,4.68
2022-10-17T12:00:49.098Z,5.32
2022-10-17T12:03:23.866Z,6.15
2022-10-17T12:06:04.232Z,7.03
2022-10-17T12:08:42.558Z,9.35
2022-10-17T12:11:10.938Z,6.32
2022-10-17T12:13:41.710Z,4.88
2022-10-17T12:16:21.653Z,36.78
2022-10-17T12:19:10.262Z,8.15
2022-10-17T12:24:55.180Z,9.95
2022-10-17T12:27:36.037Z,8.55
2022-10-17T12:30:04.528Z,5.63
2022-10-17T12:32:46.966Z,6.25
2022-10-17T12:35:28.501Z,7.77
2022-10-17T12:37:58.775Z,6.60
2022-10-17T12:40:36.827Z,6.85
2022-10-17T12:43:16.702Z,6.80
2022-10-17T12:45:49.661Z,6.75
2022-10-17T12:48:37.050Z,20.38
2022-10-17T12:51:35.261Z,9.15
2022-10-17T12:54:15.332Z,9.68
2022-10-17T12:56:45.770Z,8.50
2022-10-17T12:59:20.895Z,37.92
2022-10-17T13:01:51.482Z,7.13
2022-10-17T13:04:20.459Z,7.75
2022-10-17T13:06:54.545Z,11.27
2022-10-17T13:09:26.104Z,7.68
2022-10-17T13:11:55.742Z,6.95
2022-10-17T13:14:25.063Z,7.43
2022-10-17T13:16:55.219Z,8.20
2022-10-17T13:19:25.161Z,7.70
2022-10-17T13:21:56.455Z,8.25
2022-10-17T13:24:39.085Z,7.50
2022-10-17T13:27:24.878Z,8.77
2022-10-17T13:29:53.389Z,9.88
2022-10-17T13:32:21.926Z,9.75
2022-10-17T13:35:07.614Z,9.30
2022-10-17T13:37:36.717Z,9.07
2022-10-17T13:40:16.208Z,9.02
2022-10-17T13:42:59.360Z,8.40
2022-10-17T13:45:32.494Z,9.35
2022-10-17T13:48:02.980Z,8.68
2022-10-17T13:50:44.096Z,7.75
2022-10-17T13:53:18.856Z,9.40
2022-10-17T13:56:26.347Z,7.08
2022-10-17T13:58:51.481Z,7.65
2022-10-17T14:01:20.818Z,8.73
2022-10-17T14:03:54.720Z,7.18
2022-10-17T14:06:30.535Z,8.13
2022-10-17T14:09:01.294Z,7.78
2022-10-17T14:11:32.607Z,7.70
2022-10-17T14:14:02.268Z,8.57
2022-10-17T14:16:36.548Z,7.55
2022-10-17T14:19:24.051Z,6.70
2022-10-17T14:22:16.057Z,7.10
2022-10-17T14:24:58.027Z,6.32
2022-10-17T14:27:35.330Z,7.60
2022-10-17T14:30:07.912Z,5.97
2022-10-17T14:35:37.344Z,7.25
2022-10-17T14:38:07.182Z,6.10
2022-10-17T14:40:35.633Z,6.88
2022-10-17T14:43:06.757Z,6.50
2022-10-17T14:45:39.569Z,6.25
2022-10-17T14:48:12.835Z,7.78
2022-10-17T14:50:42.472Z,6.28
2022-10-17T14:53:10.869Z,5.00
2022-10-17T14:55:40.292Z,5.90
2022-10-17T14:58:18.578Z,6.72
2022-10-17T15:00:58.047Z,5.50
2022-10-17T15:03:26.984Z,7.30
2022-10-17T15:05:56.031Z,7.80
2022-10-17T15:08:24.787Z,5.88
2022-10-17T15:10:54.115Z,6.03
2022-10-17T15:13:31.333Z,5.20
2022-10-17T15:16:17.524Z,5.88
2022-10-17T15:18:45.991Z,5.45
2022-10-17T15:21:26.432Z,6.65
2022-10-17T15:24:12.058Z,5.75
2022-10-17T15:26:40.454Z,4.80
2022-10-17T15:29:11.071Z,6.15
2022-10-17T15:31:39.747Z,6.22
2022-10-17T15:34:12.855Z,6.25
2022-10-17T15:36:41.813Z,6.10
2022-10-17T15:39:10.759Z,5.95
2022-10-17T15:41:39.225Z,8.52
2022-10-17T15:44:07.811Z,8.85
2022-10-17T15:46:37.205Z,6.13
2022-10-17T15:49:07.956Z,7.50
2022-10-17T15:51:37.290Z,7.60
2022-10-17T15:54:06.685Z,6.93
2022-10-17T15:56:39.301Z,24.17
2022-10-17T15:59:11.487Z,6.70
2022-10-17T16:01:41.090Z,6.70
2022-10-17T16:04:13.197Z,6.78
2022-10-17T16:06:46.655Z,5.50
2022-10-17T16:09:15.017Z,5.75
2022-10-17T16:11:44.983Z,7.10
2022-10-17T16:14:14.513Z,4.93
2022-10-17T16:16:43.592Z,5.47
2022-10-17T16:19:24.194Z,5.95
2022-10-17T16:21:53.032Z,6.47
2022-10-17T16:24:21.431Z,6.10
2022-10-17T16:26:49.940Z,6.07
2022-10-17T16:29:18.475Z,6.55
2022-10-17T16:31:47.010Z,6.97
2022-10-17T16:34:16.000Z,6.70
2022-10-17T16:36:44.469Z,8.57
2022-10-17T16:39:13.013Z,7.03
2022-10-17T16:41:41.552Z,6.60
2022-10-17T16:44:14.529Z,6.57
2022-10-17T16:46:47.983Z,6.30
2022-10-17T16:49:18.618Z,7.05
2022-10-17T16:51:47.002Z,8.43
2022-10-17T16:54:15.418Z,7.38
2022-10-17T16:56:43.879Z,7.78
2022-10-17T16:59:13.643Z,8.23
2022-10-17T17:01:42.391Z,7.85
2022-10-17T17:04:10.760Z,7.38
2022-10-17T17:06:39.207Z,8.07
2022-10-17T17:09:17.731Z,8.52
2022-10-17T17:11:56.895Z,7.10
2022-10-17T17:14:25.227Z,7.72
2022-10-17T17:16:53.798Z,8.25
2022-10-17T17:19:27.636Z,7.35
2022-10-17T17:21:57.060Z,7.25
2022-10-17T17:24:25.958Z,7.20
2022-10-17T17:26:54.954Z,6.60
2022-10-17T17:29:24.017Z,7.00
2022-10-17T17:31:52.382Z,7.82
2022-10-17T17:34:20.841Z,8.43
2022-10-17T17:36:49.204Z,8.40
2022-10-17T17:39:17.676Z,8.50
2022-10-17T17:41:46.353Z,8.70
2022-10-17T17:44:16.760Z,9.23
2022-10-17T17:46:48.132Z,9.63
2022-10-17T17:49:16.548Z,9.45
2022-10-17T17:51:46.891Z,9.32
2022-10-17T17:54:16.283Z,10.65
2022-10-17T17:56:44.705Z,8.57
2022-10-17T17:59:13.819Z,9.13
2022-10-17T18:01:42.347Z,8.57
2022-10-17T18:04:11.912Z,8.90
2022-10-17T18:06:40.766Z,8.57
2022-10-17T18:09:14.361Z,8.63
2022-10-17T18:11:42.903Z,8.18
2022-10-17T18:14:13.091Z,8.57
2022-10-17T18:16:46.613Z,10.95
2022-10-17T18:19:25.085Z,8.20
2022-10-17T18:21:53.485Z,9.20
2022-10-17T18:24:22.243Z,10.50
2022-10-17T18:26:52.740Z,9.63
2022-10-17T18:29:21.430Z,14.10
2022-10-17T18:31:49.874Z,9.88
2022-10-17T18:34:19.092Z,9.55
2022-10-17T18:36:47.732Z,10.32
2022-10-17T18:39:16.104Z,10.52
2022-10-17T18:41:52.366Z,8.80
2022-10-17T18:44:21.068Z,9.75
2022-10-17T18:46:50.355Z,8.60
2022-10-17T18:49:19.646Z,10.67
2022-10-17T18:51:47.957Z,9.32
2022-10-17T18:54:20.689Z,8.98
2022-10-17T18:56:53.032Z,9.18
2022-10-17T18:59:21.668Z,8.73
2022-10-17T19:02:00.165Z,8.90
2022-10-17T19:04:28.619Z,7.72
2022-10-17T19:06:57.005Z,8.27
2022-10-17T19:09:25.412Z,8.20
2022-10-17T19:11:59.232Z,9.45
2022-10-17T19:14:29.077Z,7.55
2022-10-17T19:16:57.757Z,7.18
2022-10-17T19:19:26.605Z,8.43
2022-10-17T19:21:55.047Z,8.13
2022-10-17T19:24:28.343Z,9.27
2022-10-17T19:26:57.620Z,7.80
2022-10-17T19:29:27.180Z,7.45
2022-10-17T19:34:28.863Z,7.78
2022-10-17T19:36:57.246Z,7.55
2022-10-17T19:39:30.811Z,7.20
2022-10-17T19:42:09.304Z,7.72
2022-10-17T19:44:38.423Z,7.50
2022-10-17T19:47:07.067Z,7.05
2022-10-17T19:49:35.825Z,6.50
2022-10-17T19:52:04.240Z,6.65
2022-10-17T19:54:32.576Z,7.28
2022-10-17T19:57:01.102Z,7.20
2022-10-17T19:59:29.548Z,4.50
2022-10-17T20:01:58.111Z,7.03
2022-10-17T20:04:26.511Z,6.30
2022-10-17T20:07:00.069Z,10.43
2022-10-17T20:09:31.560Z,5.94
2022-10-17T20:12:00.008Z,6.53
2022-10-17T20:14:29.345Z,7.75
2022-10-17T20:16:57.790Z,7.88
2022-10-17T20:19:26.197Z,7.72
2022-10-17T20:21:59.734Z,7.05
2022-10-17T20:24:28.100Z,6.10
2022-10-17T20:26:56.514Z,8.40
2022-10-17T20:29:28.297Z,6.90
2022-10-17T20:32:01.623Z,6.53
2022-10-17T20:34:35.073Z,9.32
2022-10-17T20:37:03.533Z,6.63
2022-10-17T20:39:31.924Z,7.93
2022-10-17T20:42:00.275Z,8.48
2022-10-17T20:44:31.386Z,7.10
2022-10-17T20:47:02.547Z,8.32
2022-10-17T20:49:36.091Z,8.02
2022-10-17T20:52:14.483Z,7.38
2022-10-17T20:54:43.010Z,6.53
2022-10-17T20:57:13.414Z,8.40
2022-10-17T20:59:47.392Z,8.23
2022-10-17T21:02:15.837Z,9.13
2022-10-17T21:04:46.772Z,8.60
2022-10-17T21:07:15.824Z,10.27
2022-10-17T21:09:44.177Z,7.07
2022-10-17T21:12:18.127Z,7.07
2022-10-17T21:15:00.252Z,7.95
2022-10-17T21:17:28.835Z,7.47
2022-10-17T21:20:03.536Z,8.45
2022-10-17T21:22:33.820Z,7.30
2022-10-17T21:25:05.648Z,7.70
2022-10-17T21:27:34.023Z,7.43
2022-10-17T21:30:02.472Z,7.35
2022-10-17T21:32:51.082Z,8.13
2022-10-17T21:35:24.683Z,8.57
2022-10-17T21:37:53.130Z,7.68
2022-10-17T21:40:23.124Z,7.20
2022-10-17T21:42:51.895Z,8.18
2022-10-17T21:45:25.850Z,8.25
2022-10-17T21:48:12.672Z,9.48
2022-10-17T21:50:41.862Z,8.47
2022-10-17T21:53:10.302Z,9.30
2022-10-17T21:55:48.681Z,7.95
2022-10-17T21:58:17.017Z,8.93
2022-10-17T22:00:45.329Z,10.73
2022-10-17T22:03:15.556Z,9.32
2022-10-17T22:05:44.732Z,8.10
2022-10-17T22:08:13.783Z,8.43
2022-10-17T22:10:42.163Z,8.50
2022-10-17T22:13:10.586Z,8.70
2022-10-17T22:15:49.449Z,7.82
2022-10-17T22:18:23.340Z,11.68
2022-10-17T22:20:51.823Z,8.57
2022-10-17T22:23:20.092Z,8.10
2022-10-17T22:25:54.829Z,8.90
2022-10-17T22:28:33.052Z,11.10
2022-10-17T22:31:01.491Z,9.87
2022-10-17T22:33:40.865Z,8.88
2022-10-17T22:36:15.013Z,8.65
2022-10-17T22:38:43.449Z,9.73
2022-10-17T22:41:18.817Z,8.52
2022-10-17T22:43:47.254Z,8.30
2022-10-17T22:46:26.338Z,8.95
2022-10-17T22:48:54.737Z,9.07
2022-10-17T22:53:52.688Z,9.77
2022-10-17T22:56:21.427Z,8.20
2022-10-17T22:58:50.027Z,10.52
2022-10-17T23:01:19.851Z,11.03
2022-10-17T23:03:48.966Z,8.82
2022-10-17T23:06:17.319Z,9.32
2022-10-17T23:08:45.993Z,10.23
2022-10-17T23:11:16.884Z,9.87
2022-10-17T23:13:45.272Z,9.75
2022-10-17T23:16:13.573Z,9.30
2022-10-17T23:18:42.239Z,10.23
2022-10-17T23:21:10.920Z,11.23
2022-10-17T23:23:39.370Z,11.98
2022-10-17T23:26:08.849Z,12.73
2022-10-17T23:28:37.603Z,13.57
2022-10-17T23:31:17.148Z,11.93
2022-10-17T23:33:46.458Z,10.55
2022-10-17T23:36:16.297Z,11.40
2022-10-17T23:38:57.824Z,11.77
2022-10-17T23:41:31.266Z,11.86
2022-10-17T23:43:59.635Z,13.52
2022-10-17T23:46:28.050Z,11.90
2022-10-17T23:48:56.572Z,11.57
2022-10-17T23:51:24.976Z,11.60
2022-10-17T23:53:53.267Z,11.85
2022-10-17T23:56:21.632Z,11.65
2022-10-17T23:58:49.955Z,12.32
